createdAt,value
2023-02-02T00:02:11.231Z,99592.40
2023-02-02T00:04:45.305Z,99584.60
2023-02-02T00:07:19.263Z,99585.80
2023-02-02T00:09:53.254Z,99579.80
2023-02-02T00:12:28.113Z,99591.40
2023-02-02T00:15:02.268Z,99585.00
2023-02-02T00:17:36.941Z,99592.60
2023-02-02T00:20:12.922Z,99579.20
2023-02-02T00:22:47.373Z,99585.20
2023-02-02T00:25:21.876Z,99578.80
2023-02-02T00:27:55.984Z,99582.60
2023-02-02T00:30:30.484Z,99585.80
2023-02-02T00:33:04.542Z,99589.20
2023-02-02T00:35:41.109Z,99584.00
2023-02-02T00:38:15.431Z,99598.40
2023-02-02T00:40:49.550Z,99587.60
2023-02-02T00:43:23.938Z,99597.60
2023-02-02T00:45:58.372Z,99594.00
2023-02-02T00:48:32.682Z,99598.60
2023-02-02T00:51:06.983Z,99593.60
2023-02-02T00:53:41.129Z,99593.00
2023-02-02T00:56:15.419Z,99590.80
2023-02-02T00:58:49.430Z,99596.60
2023-02-02T01:01:25.262Z,99600.00
2023-02-02T01:04:00.142Z,99606.20
2023-02-02T01:06:34.120Z,99598.80
2023-02-02T01:09:08.995Z,99590.60
2023-02-02T01:11:42.712Z,99598.20
2023-02-02T01:14:16.846Z,99591.40
2023-02-02T01:16:50.946Z,99605.00
2023-02-02T01:19:25.570Z,99603.40
2023-02-02T01:22:02.699Z,99600.00
2023-02-02T01:24:37.350Z,99604.40
2023-02-02T01:27:11.257Z,99602.20
2023-02-02T01:29:45.762Z,99606.60
2023-02-02T01:32:19.984Z,99610.40
2023-02-02T01:34:54.276Z,99601.40
2023-02-02T01:37:28.261Z,99610.40
2023-02-02T01:40:02.246Z,99602.00
2023-02-02T01:42:37.111Z,99601.60
2023-02-02T01:45:24.726Z,99604.40
2023-02-02T01:48:02.081Z,99602.20
2023-02-02T01:50:38.269Z,99590.00
2023-02-02T01:53:13.206Z,99588.80
2023-02-02T01:55:47.922Z,99584.00
2023-02-02T01:58:27.349Z,99586.00
2023-02-02T02:01:01.373Z,99591.60
2023-02-02T02:03:39.002Z,99587.40
2023-02-02T02:06:18.227Z,99589.60
2023-02-02T02:08:57.814Z,99585.80
2023-02-02T02:11:32.666Z,99586.60
2023-02-02T02:14:28.688Z,99581.60
2023-02-02T02:17:28.496Z,99586.80
2023-02-02T02:20:55.301Z,99582.60
2023-02-02T02:24:52.812Z,99575.80
2023-02-02T02:28:24.562Z,99569.00
2023-02-02T02:32:01.082Z,99570.60
2023-02-02T02:34:49.698Z,99573.20
2023-02-02T02:37:39.442Z,99568.80
2023-02-02T02:40:25.324Z,99564.00
2023-02-02T02:43:09.058Z,99566.80
2023-02-02T02:45:44.786Z,99559.40
2023-02-02T02:48:18.886Z,99564.40
2023-02-02T02:50:52.681Z,99562.00
2023-02-02T02:53:30.178Z,99553.00
2023-02-02T02:56:15.925Z,99554.00
2023-02-02T02:59:00.122Z,99548.60
2023-02-02T03:01:44.502Z,99546.60
2023-02-02T03:04:27.014Z,99554.00
2023-02-02T03:07:09.188Z,99550.80
2023-02-02T03:09:47.010Z,99546.20
2023-02-02T03:12:22.627Z,99545.40
2023-02-02T03:14:56.287Z,99541.60
2023-02-02T03:17:31.468Z,99530.20
2023-02-02T03:20:09.784Z,99525.20
2023-02-02T03:22:43.786Z,99528.80
2023-02-02T03:25:18.859Z,99518.00
2023-02-02T03:27:52.685Z,99502.80
2023-02-02T03:30:27.480Z,99501.20
2023-02-02T03:33:01.662Z,99499.60
2023-02-02T03:35:35.550Z,99495.00
2023-02-02T03:38:10.216Z,99488.00
2023-02-02T03:40:44.524Z,99477.00
2023-02-02T03:43:23.228Z,99486.00
2023-02-02T03:46:04.389Z,99469.00
2023-02-02T03:48:40.206Z,99478.00
2023-02-02T03:51:15.955Z,99469.00
2023-02-02T03:53:49.993Z,99470.20
2023-02-02T03:56:24.259Z,99467.00
2023-02-02T03:58:58.083Z,99479.00
2023-02-02T04:01:33.154Z,99470.40
2023-02-02T04:04:07.278Z,99480.80
2023-02-02T04:06:41.107Z,99472.40
2023-02-02T04:09:15.000Z,99470.40
2023-02-02T04:11:48.737Z,99477.20
2023-02-02T04:14:22.750Z,99473.20
2023-02-02T04:16:56.769Z,99464.00
2023-02-02T04:19:30.663Z,99467.60
2023-02-02T04:22:04.418Z,99462.80
2023-02-02T04:24:38.524Z,99468.00
2023-02-02T04:27:12.145Z,99468.20
2023-02-02T04:29:45.887Z,99463.80
2023-02-02T04:32:21.500Z,99461.00
2023-02-02T04:34:55.500Z,99463.80
2023-02-02T04:37:31.624Z,99461.40
2023-02-02T04:40:06.010Z,99465.40
2023-02-02T04:42:39.879Z,99471.20
2023-02-02T04:45:15.224Z,99468.60
2023-02-02T04:47:48.976Z,99467.40
2023-02-02T04:50:22.990Z,99466.40
2023-02-02T04:52:56.840Z,99467.40
2023-02-02T04:55:30.668Z,99461.40
2023-02-02T04:58:04.507Z,99455.00
2023-02-02T05:00:38.869Z,99456.60
2023-02-02T05:03:12.629Z,99456.80
2023-02-02T05:05:47.159Z,99445.60
2023-02-02T05:08:20.847Z,99454.60
2023-02-02T05:10:54.666Z,99457.80
2023-02-02T05:13:28.590Z,99450.80
2023-02-02T05:16:02.286Z,99457.80
2023-02-02T05:18:36.211Z,99456.40
2023-02-02T05:21:10.829Z,99465.20
2023-02-02T05:23:44.515Z,99461.80
2023-02-02T05:26:23.525Z,99455.80
2023-02-02T05:28:57.882Z,99455.40
2023-02-02T05:31:32.253Z,99456.20
2023-02-02T05:34:11.521Z,99454.80
2023-02-02T05:36:45.432Z,99453.60
2023-02-02T05:39:19.764Z,99460.20
2023-02-02T05:41:53.635Z,99464.60
2023-02-02T05:44:27.661Z,99467.80
2023-02-02T05:47:02.293Z,99471.00
2023-02-02T05:49:36.017Z,99479.00
2023-02-02T05:52:11.348Z,99478.00
2023-02-02T05:54:45.264Z,99473.40
2023-02-02T05:57:18.898Z,99485.60
2023-02-02T05:59:52.619Z,99484.60
2023-02-02T06:02:26.517Z,99489.60
2023-02-02T06:05:00.746Z,99498.60
2023-02-02T06:07:34.464Z,99501.80
2023-02-02T06:10:10.026Z,99511.00
2023-02-02T06:12:44.383Z,99521.80
2023-02-02T06:15:18.737Z,99518.00
2023-02-02T06:17:52.451Z,99522.00
2023-02-02T06:20:26.206Z,99519.40
2023-02-02T06:23:00.391Z,99509.20
2023-02-02T06:25:34.548Z,99517.00
2023-02-02T06:28:09.548Z,99526.20
2023-02-02T06:30:44.300Z,99514.00
2023-02-02T06:33:21.039Z,99528.20
2023-02-02T06:35:54.818Z,99532.60
2023-02-02T06:38:29.103Z,99526.20
2023-02-02T06:41:06.997Z,99534.20
2023-02-02T06:43:43.100Z,99538.60
2023-02-02T06:46:17.524Z,99546.00
2023-02-02T06:48:51.387Z,99547.00
2023-02-02T06:51:25.067Z,99544.40
2023-02-02T06:53:59.643Z,99548.80
2023-02-02T06:56:34.311Z,99562.40
2023-02-02T06:59:08.221Z,99559.20
2023-02-02T07:01:42.036Z,99562.20
2023-02-02T07:04:15.888Z,99563.40
2023-02-02T07:15:35.255Z,99585.20
2023-02-02T07:18:09.746Z,99595.80
2023-02-02T07:20:43.605Z,99591.80
2023-02-02T07:23:17.495Z,99602.40
2023-02-02T07:25:51.301Z,99606.60
2023-02-02T07:28:24.860Z,99606.20
2023-02-02T07:30:58.658Z,99606.80
2023-02-02T07:33:33.094Z,99611.60
2023-02-02T07:36:08.460Z,99616.80
2023-02-02T07:38:42.229Z,99619.60
2023-02-02T07:41:16.880Z,99618.00
2023-02-02T07:43:55.989Z,99627.60
2023-02-02T07:46:30.298Z,99630.40
2023-02-02T07:49:04.144Z,99633.80
2023-02-02T07:51:44.311Z,99634.60
2023-02-02T07:54:20.458Z,99642.20
2023-02-02T07:56:54.356Z,99645.60
2023-02-02T07:59:28.962Z,99645.00
2023-02-02T08:02:04.112Z,99646.60
2023-02-02T08:04:38.357Z,99656.60
2023-02-02T08:07:14.245Z,99667.40
2023-02-02T08:09:52.262Z,99667.40
2023-02-02T08:12:26.763Z,99677.20
2023-02-02T08:15:00.823Z,99676.00
2023-02-02T08:17:34.744Z,99684.00
2023-02-02T08:20:13.033Z,99685.60
2023-02-02T08:22:47.209Z,99687.20
2023-02-02T08:25:21.303Z,99674.20
2023-02-02T08:28:01.432Z,99682.40
2023-02-02T08:30:37.247Z,99705.60
2023-02-02T08:33:11.223Z,99707.20
2023-02-02T08:35:47.466Z,99696.40
2023-02-02T08:38:22.184Z,99722.20
2023-02-02T08:40:55.930Z,99728.80
2023-02-02T08:43:31.271Z,99733.80
2023-02-02T08:46:05.925Z,99728.20
2023-02-02T08:48:41.279Z,99734.80
2023-02-02T08:51:19.305Z,99728.80
2023-02-02T08:53:53.193Z,99745.00
2023-02-02T08:56:28.102Z,99748.40
2023-02-02T08:59:04.879Z,99737.00
2023-02-02T09:01:39.868Z,99775.00
2023-02-02T09:04:18.421Z,99766.60
2023-02-02T09:06:52.462Z,99755.00
2023-02-02T09:09:26.870Z,99784.40
2023-02-02T09:12:02.058Z,99782.80
2023-02-02T09:14:36.064Z,99784.00
2023-02-02T09:17:09.924Z,99796.40
2023-02-02T09:19:43.837Z,99799.20
2023-02-02T09:22:17.992Z,99809.40
2023-02-02T09:24:51.986Z,99813.80
2023-02-02T09:27:26.487Z,99818.80
2023-02-02T09:30:00.905Z,99827.00
2023-02-02T09:32:35.360Z,99825.20
2023-02-02T09:35:10.859Z,99833.20
2023-02-02T09:37:45.543Z,99820.80
2023-02-02T09:40:22.937Z,99836.60
2023-02-02T09:43:14.893Z,99843.80
2023-02-02T09:45:58.649Z,99836.20
2023-02-02T09:48:45.398Z,99847.00
2023-02-02T09:51:27.108Z,99847.80
2023-02-02T09:54:14.081Z,99841.60
2023-02-02T09:56:55.913Z,99845.00
2023-02-02T09:59:35.639Z,99846.00
2023-02-02T10:02:18.845Z,99845.60
2023-02-02T10:04:59.852Z,99848.20
2023-02-02T10:07:42.625Z,99849.60
2023-02-02T10:10:25.923Z,99853.80
2023-02-02T10:13:06.876Z,99845.20
2023-02-02T10:15:51.939Z,99840.80
2023-02-02T10:18:36.685Z,99850.80
2023-02-02T10:21:20.254Z,99856.60
2023-02-02T10:23:54.854Z,99843.60
2023-02-02T10:26:39.789Z,99847.00
2023-02-02T10:29:40.128Z,99850.60
2023-02-02T10:32:27.752Z,99853.20
2023-02-02T10:35:29.131Z,99851.40
2023-02-02T10:38:18.872Z,99847.20
2023-02-02T10:41:08.380Z,99862.00
2023-02-02T10:44:09.634Z,99862.40
2023-02-02T10:46:48.679Z,99870.80
2023-02-02T10:49:31.113Z,99873.80
2023-02-02T10:52:18.811Z,99870.60
2023-02-02T10:55:04.447Z,99883.80
2023-02-02T10:58:18.528Z,99886.60
2023-02-02T11:00:58.498Z,99889.80
2023-02-02T11:03:37.921Z,99888.80
2023-02-02T11:06:32.630Z,99898.80
2023-02-02T11:09:14.157Z,99911.80
2023-02-02T11:11:52.235Z,99906.20
2023-02-02T11:14:45.615Z,99918.60
2023-02-02T11:17:26.234Z,99914.00
2023-02-02T11:20:00.987Z,99928.20
2023-02-02T11:22:40.394Z,99928.00
2023-02-02T11:25:35.164Z,99917.00
2023-02-02T11:28:24.216Z,99947.40
2023-02-02T11:30:58.817Z,99947.00
2023-02-02T11:33:35.874Z,99944.80
2023-02-02T11:36:24.791Z,99956.20
2023-02-02T11:39:23.798Z,99952.40
2023-02-02T11:42:06.567Z,99955.80
2023-02-02T11:44:44.596Z,99945.40
2023-02-02T11:47:28.251Z,99954.80
2023-02-02T11:50:04.718Z,99963.60
2023-02-02T11:52:41.563Z,99965.00
2023-02-02T11:55:26.728Z,99971.80
2023-02-02T11:58:27.691Z,99987.20
2023-02-02T12:01:06.328Z,99971.40
2023-02-02T12:03:42.223Z,99982.40
2023-02-02T12:06:28.571Z,99983.60
2023-02-02T12:09:11.126Z,99985.80
2023-02-02T12:12:02.382Z,99989.80
2023-02-02T12:14:50.885Z,99982.80
2023-02-02T12:17:40.627Z,100002.20
2023-02-02T12:20:43.092Z,100010.60
2023-02-02T12:23:52.711Z,100015.80
2023-02-02T12:26:38.113Z,100023.80
2023-02-02T12:29:44.302Z,100022.00
2023-02-02T12:32:39.754Z,100021.80
2023-02-02T12:35:41.441Z,100033.20
2023-02-02T12:38:32.494Z,100029.20
2023-02-02T12:41:31.012Z,100027.20
2023-02-02T12:44:16.445Z,100031.80
2023-02-02T12:47:02.891Z,100034.80
2023-02-02T12:50:08.650Z,100044.60
2023-02-02T12:53:01.592Z,100056.80
2023-02-02T12:55:45.738Z,100065.40
2023-02-02T12:58:33.910Z,100076.60
2023-02-02T13:01:34.828Z,100081.60
2023-02-02T13:04:33.593Z,100087.20
2023-02-02T13:07:33.954Z,100098.80
2023-02-02T13:10:18.455Z,100106.00
2023-02-02T13:12:58.939Z,100105.20
2023-02-02T13:15:40.842Z,100115.40
2023-02-02T13:18:21.801Z,100114.00
2023-02-02T13:21:01.771Z,100122.60
2023-02-02T13:23:42.383Z,100130.00
2023-02-02T13:26:23.230Z,100134.80
2023-02-02T13:29:02.585Z,100147.00
2023-02-02T13:31:45.206Z,100150.20
2023-02-02T13:34:25.538Z,100161.40
2023-02-02T13:37:08.466Z,100171.00
2023-02-02T13:39:49.576Z,100175.40
2023-02-02T13:42:38.495Z,100184.20
2023-02-02T13:45:42.872Z,100188.80
2023-02-02T13:48:29.682Z,100200.60
2023-02-02T13:51:37.037Z,100186.60
2023-02-02T13:54:50.743Z,100197.60
2023-02-02T13:58:04.331Z,100209.80
2023-02-02T14:00:44.517Z,100216.20
2023-02-02T14:03:38.707Z,100212.60
2023-02-02T14:06:17.986Z,100205.20
2023-02-02T14:08:56.080Z,100209.40
2023-02-02T14:11:35.564Z,100216.60
2023-02-02T14:14:35.410Z,100213.80
2023-02-02T14:17:48.347Z,100215.20
2023-02-02T14:20:49.119Z,100215.80
2023-02-02T14:23:58.885Z,100223.00
2023-02-02T14:26:50.558Z,100226.40
2023-02-02T14:30:01.544Z,100226.40
2023-02-02T14:32:45.941Z,100218.40
2023-02-02T14:36:04.363Z,100220.80
2023-02-02T14:39:05.624Z,100223.20
2023-02-02T14:42:38.441Z,100231.40
2023-02-02T14:45:27.797Z,100252.00
2023-02-02T14:48:10.112Z,100260.20
2023-02-02T14:50:52.870Z,100267.40
2023-02-02T14:53:33.615Z,100272.20
2023-02-02T14:56:10.938Z,100277.20
2023-02-02T14:58:54.765Z,100291.00
2023-02-02T15:01:33.535Z,100297.80
2023-02-02T15:04:30.361Z,100304.60
2023-02-02T15:07:55.192Z,100317.40
2023-02-02T15:11:22.091Z,100315.60
2023-02-02T15:14:19.666Z,100322.20
2023-02-02T15:16:54.395Z,100331.80
2023-02-02T15:19:39.071Z,100333.80
2023-02-02T15:22:31.503Z,100337.40
2023-02-02T15:25:19.578Z,100350.00
2023-02-02T15:28:02.482Z,100351.60
2023-02-02T15:30:43.104Z,100356.20
2023-02-02T15:33:31.728Z,100364.40
2023-02-02T15:36:13.899Z,100365.20
2023-02-02T15:38:50.352Z,100369.00
2023-02-02T15:41:28.608Z,100383.80
2023-02-02T15:44:02.730Z,100394.60
2023-02-02T15:46:39.584Z,100407.40
2023-02-02T15:49:36.180Z,100411.40
2023-02-02T15:52:18.412Z,100421.00
2023-02-02T15:54:58.554Z,100419.80
2023-02-02T15:57:40.665Z,100430.20
2023-02-02T16:00:33.163Z,100447.60
2023-02-02T16:03:15.877Z,100457.40
2023-02-02T16:05:53.809Z,100471.00
2023-02-02T16:08:34.247Z,100483.60
2023-02-02T16:11:13.747Z,100492.80
2023-02-02T16:14:01.345Z,100500.00
2023-02-02T16:16:39.685Z,100500.20
2023-02-02T16:19:23.639Z,100517.00
2023-02-02T16:22:03.139Z,100525.00
2023-02-02T16:24:41.494Z,100534.60
2023-02-02T16:27:22.473Z,100540.80
2023-02-02T16:30:01.199Z,100546.80
2023-02-02T16:32:39.225Z,100558.00
2023-02-02T16:35:36.872Z,100557.60
2023-02-02T16:38:27.093Z,100562.60
2023-02-02T16:41:09.964Z,100573.00
2023-02-02T16:43:45.386Z,100574.60
2023-02-02T16:46:48.323Z,100575.20
2023-02-02T16:49:26.292Z,100584.00
2023-02-02T16:52:19.679Z,100593.80
2023-02-02T16:54:58.087Z,100595.00
2023-02-02T16:57:35.228Z,100604.40
2023-02-02T17:00:22.741Z,100615.80
2023-02-02T17:03:01.753Z,100617.60
2023-02-02T17:05:47.153Z,100620.20
2023-02-02T17:08:33.464Z,100632.00
2023-02-02T17:11:23.232Z,100645.00
2023-02-02T17:13:57.545Z,100652.40
2023-02-02T17:16:31.286Z,100658.80
2023-02-02T17:19:05.149Z,100666.60
2023-02-02T17:21:39.022Z,100669.60
2023-02-02T17:24:14.319Z,100691.00
2023-02-02T17:26:48.357Z,100689.00
2023-02-02T17:29:24.357Z,100696.60
2023-02-02T17:31:58.307Z,100705.20
2023-02-02T17:34:32.308Z,100708.80
2023-02-02T17:37:06.317Z,100718.00
2023-02-02T17:39:40.105Z,100724.00
2023-02-02T17:42:25.620Z,100730.40
2023-02-02T17:44:59.481Z,100746.40
2023-02-02T17:47:36.878Z,100751.00
2023-02-02T17:50:11.909Z,100755.80
2023-02-02T17:52:46.294Z,100765.00
2023-02-02T17:55:26.200Z,100767.80
2023-02-02T17:58:00.442Z,100774.20
2023-02-02T18:00:34.920Z,100776.00
2023-02-02T18:03:20.973Z,100777.40
2023-02-02T18:05:55.896Z,100783.60
2023-02-02T18:08:30.137Z,100784.00
2023-02-02T18:11:04.029Z,100786.20
2023-02-02T18:13:38.089Z,100796.40
2023-02-02T18:16:13.630Z,100800.60
2023-02-02T18:18:47.527Z,100803.00
2023-02-02T18:21:21.735Z,100806.20
2023-02-02T18:23:55.502Z,100822.20
2023-02-02T18:26:31.378Z,100816.40
2023-02-02T18:29:05.612Z,100818.00
2023-02-02T18:31:41.989Z,100820.40
2023-02-02T18:34:16.435Z,100825.40
2023-02-02T18:36:50.456Z,100819.80
2023-02-02T18:39:24.333Z,100832.40
2023-02-02T18:41:58.835Z,100834.00
2023-02-02T18:44:34.559Z,100839.60
2023-02-02T18:47:08.840Z,100853.60
2023-02-02T18:49:42.771Z,100865.20
2023-02-02T18:52:16.591Z,100869.40
2023-02-02T18:54:51.135Z,100880.40
2023-02-02T18:57:25.004Z,100889.00
2023-02-02T18:59:58.717Z,100895.80
2023-02-02T19:02:32.545Z,100891.80
2023-02-02T19:05:26.300Z,100899.20
2023-02-02T19:08:00.492Z,100901.40
2023-02-02T19:10:34.518Z,100902.80
2023-02-02T19:13:19.553Z,100903.80
2023-02-02T19:15:54.915Z,100919.00
2023-02-02T19:18:32.684Z,100921.00
2023-02-02T19:21:14.144Z,100918.40
2023-02-02T19:23:48.305Z,100922.60
2023-02-02T19:26:28.143Z,100917.80
2023-02-02T19:29:14.308Z,100927.40
2023-02-02T19:31:52.416Z,100931.60
2023-02-02T19:34:26.579Z,100936.60
2023-02-02T19:37:02.478Z,100942.80
2023-02-02T19:39:36.355Z,100949.00
2023-02-02T19:42:15.153Z,100957.40
2023-02-02T19:44:49.066Z,100957.60
2023-02-02T19:47:32.433Z,100957.00
2023-02-02T19:50:20.121Z,100963.20
2023-02-02T19:52:55.358Z,100970.20
2023-02-02T19:55:36.149Z,100971.20
2023-02-02T19:58:21.951Z,100976.40
2023-02-02T20:00:58.459Z,100981.00
2023-02-02T20:03:43.147Z,100988.20
2023-02-02T20:06:24.055Z,100986.80
2023-02-02T20:08:59.033Z,100983.20
2023-02-02T20:11:41.025Z,100985.80
2023-02-02T20:14:33.035Z,100993.00
2023-02-02T20:17:22.041Z,101005.80
2023-02-02T20:19:57.192Z,101017.20
2023-02-02T20:22:35.015Z,101024.80
2023-02-02T20:25:16.193Z,101037.20
2023-02-02T20:27:53.055Z,101041.80
2023-02-02T20:30:33.014Z,101048.20
2023-02-02T20:33:28.125Z,101057.00
2023-02-02T20:36:05.002Z,101048.60
2023-02-02T20:38:43.044Z,101055.60
2023-02-02T20:41:21.024Z,101063.80
2023-02-02T20:43:57.024Z,101059.00
2023-02-02T20:46:34.031Z,101061.40
2023-02-02T20:49:11.079Z,101069.60
2023-02-02T20:51:46.007Z,101078.80
2023-02-02T20:54:22.027Z,101083.60
2023-02-02T20:56:58.014Z,101083.40
2023-02-02T20:59:33.999Z,101096.00
2023-02-02T21:02:16.067Z,101096.80
2023-02-02T21:04:52.025Z,101099.20
2023-02-02T21:07:30.007Z,101100.20
2023-02-02T21:18:07.581Z,101101.80
2023-02-02T21:20:42.079Z,101098.60
2023-02-02T21:23:16.940Z,101096.40
2023-02-02T21:25:51.164Z,101094.20
2023-02-02T21:28:25.058Z,101092.60
2023-02-02T21:30:59.198Z,101093.00
2023-02-02T21:33:33.177Z,101101.60
2023-02-02T21:36:27.816Z,101092.20
2023-02-02T21:39:16.765Z,101094.60
2023-02-02T21:41:51.981Z,101102.00
2023-02-02T21:44:27.386Z,101097.80
2023-02-02T21:47:02.287Z,101097.80
2023-02-02T21:49:42.033Z,101101.00
2023-02-02T21:52:20.158Z,101098.40
2023-02-02T21:54:54.368Z,101099.80
2023-02-02T21:57:37.373Z,101098.20
2023-02-02T22:00:31.092Z,101097.40
2023-02-02T22:03:07.150Z,101106.80
2023-02-02T22:05:41.594Z,101110.40
2023-02-02T22:08:26.964Z,101111.00
2023-02-02T22:11:01.166Z,101103.60
2023-02-02T22:13:38.099Z,101106.40
2023-02-02T22:16:20.884Z,101107.60
2023-02-02T22:18:55.332Z,101116.40
2023-02-02T22:21:29.635Z,101113.20
2023-02-02T22:24:05.169Z,101113.20
2023-02-02T22:26:39.015Z,101119.60
2023-02-02T22:29:21.344Z,101121.60
2023-02-02T22:31:55.933Z,101129.40
2023-02-02T22:34:30.043Z,101135.80
2023-02-02T22:37:03.897Z,101128.20
2023-02-02T22:39:42.911Z,101131.60
2023-02-02T22:42:18.426Z,101132.00
2023-02-02T22:44:52.639Z,101129.40
2023-02-02T22:47:26.520Z,101139.60
2023-02-02T22:50:00.634Z,101145.60
2023-02-02T22:52:34.406Z,101147.80
2023-02-02T22:55:09.736Z,101150.60
2023-02-02T22:57:44.308Z,101150.60
2023-02-02T23:00:23.961Z,101146.00
2023-02-02T23:02:58.946Z,101145.20
2023-02-02T23:05:33.616Z,101151.00
2023-02-02T23:08:08.134Z,101154.00
2023-02-02T23:10:42.575Z,101159.60
2023-02-02T23:13:17.924Z,101166.40
2023-02-02T23:15:52.448Z,101165.40
2023-02-02T23:18:26.450Z,101170.40
2023-02-02T23:21:01.080Z,101172.40
2023-02-02T23:23:34.996Z,101173.20
2023-02-02T23:26:09.308Z,101181.00
2023-02-02T23:28:43.435Z,101186.00
2023-02-02T23:31:17.409Z,101188.40
2023-02-02T23:33:51.374Z,101181.60
2023-02-02T23:36:25.567Z,101186.40
2023-02-02T23:38:59.440Z,101186.20
2023-02-02T23:41:33.111Z,101182.00
2023-02-02T23:44:07.561Z,101178.00
2023-02-02T23:46:42.933Z,101177.20
2023-02-02T23:49:17.439Z,101177.20
2023-02-02T23:51:51.411Z,101170.80
2023-02-02T23:54:26.084Z,101181.60
2023-02-02T23:57:00.376Z,101178.00
2023-02-02T23:59:34.202Z,101172.40
